createdAt,value
2019-02-02T00:00:41.408Z,14.30
2019-02-02T00:01:41.394Z,14.50
2019-02-02T00:02:41.382Z,14.90
2019-02-02T00:03:41.376Z,14.00
2019-02-02T00:04:41.366Z,15.40
2019-02-02T00:05:41.351Z,14.80
2019-02-02T00:06:41.340Z,13.80
2019-02-02T00:07:41.332Z,13.60
2019-02-02T00:08:41.317Z,14.60
2019-02-02T00:09:41.297Z,14.20
2019-02-02T00:10:41.299Z,14.50
2019-02-02T00:11:41.285Z,14.90
2019-02-02T00:12:41.274Z,14.00
2019-02-02T00:13:41.266Z,14.50
2019-02-02T00:14:41.255Z,14.30
2019-02-02T00:15:41.239Z,13.70
2019-02-02T00:16:41.235Z,13.90
2019-02-02T00:17:41.219Z,14.80
2019-02-02T00:18:41.211Z,14.10
2019-02-02T00:19:41.201Z,14.90
2019-02-02T00:20:41.188Z,15.50
2019-02-02T00:21:41.175Z,14.70
2019-02-02T00:22:41.169Z,14.80
2019-02-02T00:23:41.153Z,14.60
2019-02-02T00:24:41.148Z,14.70
2019-02-02T00:25:41.135Z,14.70
2019-02-02T00:26:41.121Z,14.80
2019-02-02T00:27:41.856Z,14.50
2019-02-02T00:28:41.097Z,15.30
2019-02-02T00:29:41.086Z,14.20
2019-02-02T00:30:41.080Z,15.00
2019-02-02T00:31:41.068Z,15.00
2019-02-02T00:32:41.059Z,14.40
2019-02-02T00:33:41.048Z,14.70
2019-02-02T00:34:41.041Z,14.30
2019-02-02T00:35:41.023Z,14.60
2019-02-02T00:36:41.014Z,15.10
2019-02-02T00:37:41.005Z,14.50
2019-02-02T00:38:40.993Z,15.60
2019-02-02T00:39:40.981Z,14.50
2019-02-02T00:40:40.969Z,14.80
2019-02-02T00:41:40.956Z,14.20
2019-02-02T00:42:40.952Z,15.20
2019-02-02T00:43:40.943Z,14.30
2019-02-02T00:44:40.928Z,14.60
2019-02-02T00:45:40.920Z,14.80
2019-02-02T00:46:40.906Z,14.50
2019-02-02T00:47:40.892Z,14.80
2019-02-02T00:48:40.882Z,14.00
2019-02-02T00:49:40.872Z,14.80
2019-02-02T00:50:40.862Z,15.00
2019-02-02T00:51:40.854Z,15.70
2019-02-02T00:52:40.839Z,15.90
2019-02-02T00:53:40.825Z,15.20
2019-02-02T00:54:40.816Z,16.30
2019-02-02T00:55:40.808Z,14.50
2019-02-02T00:56:40.799Z,16.40
2019-02-02T00:57:40.802Z,15.00
2019-02-02T00:58:40.772Z,15.60
2019-02-02T00:59:40.763Z,17.60
2019-02-02T01:00:40.752Z,17.40
2019-02-02T01:01:40.744Z,18.30
2019-02-02T01:02:40.732Z,16.80
2019-02-02T01:03:40.718Z,17.40
2019-02-02T01:04:40.712Z,16.40
2019-02-02T01:05:40.699Z,15.90
2019-02-02T01:06:40.798Z,16.10
2019-02-02T01:07:40.676Z,17.00
2019-02-02T01:08:40.666Z,17.50
2019-02-02T01:09:40.656Z,16.20
2019-02-02T01:10:40.643Z,15.90
2019-02-02T01:11:40.631Z,16.80
2019-02-02T01:12:40.623Z,16.40
2019-02-02T01:13:40.608Z,16.80
2019-02-02T01:14:40.602Z,15.80
2019-02-02T01:15:40.590Z,16.50
2019-02-02T01:16:40.577Z,15.80
2019-02-02T01:17:40.566Z,15.80
2019-02-02T01:18:40.553Z,16.50
2019-02-02T01:19:40.545Z,16.10
2019-02-02T01:20:40.533Z,16.60
2019-02-02T01:21:40.523Z,16.40
2019-02-02T01:22:40.515Z,16.90
2019-02-02T01:23:40.506Z,15.10
2019-02-02T01:24:40.491Z,16.10
2019-02-02T01:25:40.481Z,16.10
2019-02-02T01:26:40.467Z,15.50
2019-02-02T01:27:40.459Z,14.80
2019-02-02T01:28:40.451Z,15.60
2019-02-02T01:29:40.442Z,16.70
2019-02-02T01:30:40.426Z,16.40
2019-02-02T01:31:40.417Z,15.30
2019-02-02T01:32:40.403Z,15.90
2019-02-02T01:33:40.393Z,16.10
2019-02-02T01:34:40.385Z,16.40
2019-02-02T01:35:40.459Z,16.60
2019-02-02T01:36:40.356Z,15.90
2019-02-02T01:37:40.350Z,16.20
2019-02-02T01:38:40.337Z,16.20
2019-02-02T01:39:40.322Z,15.70
2019-02-02T01:40:40.323Z,16.00
2019-02-02T01:41:40.310Z,16.30
2019-02-02T01:42:40.295Z,15.90
2019-02-02T01:43:40.286Z,15.70
2019-02-02T01:44:40.278Z,16.30
2019-02-02T01:45:40.262Z,15.90
2019-02-02T01:46:40.255Z,14.80
2019-02-02T01:47:40.244Z,15.10
2019-02-02T01:48:40.231Z,14.70
2019-02-02T01:49:40.306Z,15.70
2019-02-02T01:50:40.214Z,15.10
2019-02-02T01:51:40.197Z,16.20
2019-02-02T01:52:40.187Z,15.00
2019-02-02T01:53:40.184Z,15.50
2019-02-02T01:54:40.168Z,15.30
2019-02-02T01:55:40.156Z,15.30
2019-02-02T01:56:40.144Z,16.50
2019-02-02T01:57:40.131Z,14.50
2019-02-02T01:58:40.126Z,15.80
2019-02-02T01:59:40.111Z,16.30
2019-02-02T02:00:40.098Z,16.60
2019-02-02T02:01:41.771Z,16.60
2019-02-02T02:02:40.078Z,15.70
2019-02-02T02:03:40.069Z,15.80
2019-02-02T02:04:40.057Z,15.30
2019-02-02T02:05:40.040Z,15.40
2019-02-02T02:06:40.040Z,15.30
2019-02-02T02:07:40.027Z,15.10
2019-02-02T02:08:40.019Z,15.90
2019-02-02T02:09:40.006Z,16.60
2019-02-02T02:10:39.989Z,15.20
2019-02-02T02:11:39.983Z,16.10
2019-02-02T02:12:39.975Z,16.00
2019-02-02T02:13:39.962Z,16.20
2019-02-02T02:14:39.949Z,16.30
2019-02-02T02:15:40.046Z,15.90
2019-02-02T02:16:39.931Z,16.30
2019-02-02T02:17:39.906Z,15.50
2019-02-02T02:18:39.906Z,15.60
2019-02-02T02:19:39.897Z,16.60
2019-02-02T02:20:39.890Z,16.90
2019-02-02T02:21:39.870Z,16.50
2019-02-02T02:22:41.057Z,16.40
2019-02-02T02:23:39.856Z,16.30
2019-02-02T02:24:39.853Z,16.10
2019-02-02T02:25:39.828Z,17.20
2019-02-02T02:26:39.824Z,16.30
2019-02-02T02:27:39.809Z,16.70
2019-02-02T02:28:39.797Z,16.50
2019-02-02T02:29:39.784Z,15.90
2019-02-02T02:30:39.779Z,15.60
2019-02-02T02:31:39.872Z,15.90
2019-02-02T02:32:39.758Z,17.50
2019-02-02T02:33:39.741Z,16.50
2019-02-02T02:34:39.734Z,16.90
2019-02-02T02:35:39.728Z,16.50
2019-02-02T02:36:39.712Z,16.30
2019-02-02T02:37:39.703Z,17.50
2019-02-02T02:38:39.692Z,16.90
2019-02-02T02:39:39.681Z,16.50
2019-02-02T02:40:39.667Z,16.60
2019-02-02T02:41:39.657Z,16.50
2019-02-02T02:42:39.647Z,16.90
2019-02-02T02:43:39.635Z,16.60
2019-02-02T02:44:39.626Z,17.50
2019-02-02T02:45:39.616Z,16.10
2019-02-02T02:46:39.608Z,17.20
2019-02-02T02:47:39.597Z,16.90
2019-02-02T02:48:39.580Z,16.90
2019-02-02T02:49:39.571Z,17.00
2019-02-02T02:50:39.565Z,16.60
2019-02-02T02:51:39.551Z,17.00
2019-02-02T02:52:39.541Z,17.60
2019-02-02T02:53:39.533Z,16.70
2019-02-02T02:54:39.519Z,16.70
2019-02-02T02:55:39.522Z,16.20
2019-02-02T02:56:39.497Z,16.80
2019-02-02T02:57:39.489Z,15.70
2019-02-02T02:58:41.592Z,16.80
2019-02-02T02:59:39.472Z,16.40
2019-02-02T03:00:39.449Z,16.20
2019-02-02T03:01:39.439Z,16.10
2019-02-02T03:02:39.465Z,16.80
2019-02-02T03:03:39.422Z,16.00
2019-02-02T03:04:39.411Z,16.60
2019-02-02T03:05:39.401Z,17.00
2019-02-02T03:06:39.387Z,17.40
2019-02-02T03:07:39.510Z,17.20
2019-02-02T03:08:39.367Z,17.00
2019-02-02T03:09:39.354Z,17.70
2019-02-02T03:10:39.348Z,16.70
2019-02-02T03:11:39.337Z,15.90
2019-02-02T03:12:39.325Z,17.10
2019-02-02T03:13:39.313Z,17.00
2019-02-02T03:14:39.301Z,16.30
2019-02-02T03:15:39.291Z,15.40
2019-02-02T03:16:39.281Z,16.80
2019-02-02T03:17:39.275Z,17.00
2019-02-02T03:18:39.258Z,16.50
2019-02-02T03:19:39.251Z,16.80
2019-02-02T03:20:39.238Z,16.40
2019-02-02T03:21:39.226Z,17.10
2019-02-02T03:22:39.225Z,17.00
2019-02-02T03:23:39.209Z,16.90
2019-02-02T03:24:39.202Z,16.70
2019-02-02T03:25:39.182Z,17.10
2019-02-02T03:26:39.172Z,16.80
2019-02-02T03:27:39.163Z,17.80
2019-02-02T03:28:39.151Z,17.30
2019-02-02T03:29:39.138Z,17.20
2019-02-02T03:30:39.129Z,17.00
2019-02-02T03:31:39.119Z,17.80
2019-02-02T03:32:39.114Z,16.90
2019-02-02T03:33:39.095Z,17.00
2019-02-02T03:34:39.095Z,17.50
2019-02-02T03:35:39.082Z,16.70
2019-02-02T03:36:39.070Z,18.10
2019-02-02T03:37:39.060Z,17.90
2019-02-02T03:38:39.042Z,17.40
2019-02-02T03:39:39.030Z,17.30
2019-02-02T03:40:39.020Z,17.90
2019-02-02T03:41:39.006Z,18.40
2019-02-02T03:42:39.002Z,17.50
2019-02-02T03:43:38.993Z,16.90
2019-02-02T03:44:38.982Z,16.60
2019-02-02T03:45:40.777Z,16.70
2019-02-02T03:46:38.955Z,17.00
2019-02-02T03:47:38.949Z,19.40
2019-02-02T03:48:38.942Z,25.90
2019-02-02T03:49:38.928Z,29.80
2019-02-02T03:50:38.913Z,27.00
2019-02-02T03:51:38.900Z,24.90
2019-02-02T03:52:38.896Z,25.50
2019-02-02T03:53:41.077Z,28.40
2019-02-02T03:54:38.871Z,36.40
2019-02-02T03:55:38.861Z,39.20
2019-02-02T03:56:38.849Z,30.60
2019-02-02T03:57:38.839Z,26.50
2019-02-02T03:58:38.830Z,25.10
2019-02-02T03:59:38.817Z,20.80
2019-02-02T04:00:38.806Z,19.40
2019-02-02T04:01:38.797Z,18.40
2019-02-02T04:02:38.786Z,18.30
2019-02-02T04:03:38.781Z,18.60
2019-02-02T04:04:38.767Z,17.90
2019-02-02T04:05:38.751Z,18.20
2019-02-02T04:06:38.750Z,17.70
2019-02-02T04:07:38.731Z,17.80
2019-02-02T04:08:38.722Z,21.10
2019-02-02T04:09:38.713Z,17.90
2019-02-02T04:10:38.696Z,17.90
2019-02-02T04:11:38.686Z,18.10
2019-02-02T04:12:38.676Z,16.70
2019-02-02T04:13:38.664Z,18.40
2019-02-02T04:14:38.673Z,18.70
2019-02-02T04:15:38.646Z,19.40
2019-02-02T04:16:38.635Z,18.80
2019-02-02T04:17:38.625Z,19.80
2019-02-02T04:18:38.611Z,19.10
2019-02-02T04:19:38.599Z,18.40
2019-02-02T04:20:38.592Z,18.90
2019-02-02T04:21:38.580Z,19.10
2019-02-02T04:22:38.580Z,18.70
2019-02-02T04:23:38.556Z,19.60
2019-02-02T04:24:38.546Z,20.60
2019-02-02T04:25:38.535Z,18.40
2019-02-02T04:26:38.527Z,18.70
2019-02-02T04:27:38.516Z,19.20
2019-02-02T04:28:38.518Z,18.80
2019-02-02T04:29:38.492Z,19.50
2019-02-02T04:30:38.481Z,19.90
2019-02-02T04:31:38.468Z,20.80
2019-02-02T04:32:38.465Z,20.70
2019-02-02T04:33:38.449Z,19.50
2019-02-02T04:34:38.438Z,19.50
2019-02-02T04:35:38.427Z,19.20
2019-02-02T04:36:38.417Z,19.00
2019-02-02T04:37:38.525Z,18.60
2019-02-02T04:38:38.395Z,18.70
2019-02-02T04:39:38.388Z,18.90
2019-02-02T04:40:38.378Z,18.60
2019-02-02T04:41:38.359Z,18.60
2019-02-02T04:42:38.351Z,18.60
2019-02-02T04:43:38.461Z,17.90
2019-02-02T04:44:38.325Z,18.50
2019-02-02T04:45:38.322Z,20.10
2019-02-02T04:46:38.308Z,18.90
2019-02-02T04:47:38.378Z,19.00
2019-02-02T04:48:38.289Z,19.40
2019-02-02T04:49:38.285Z,20.40
2019-02-02T04:50:38.267Z,20.10
2019-02-02T04:51:38.254Z,19.50
2019-02-02T04:52:38.243Z,19.70
2019-02-02T04:53:38.232Z,20.60
2019-02-02T04:54:38.219Z,19.70
2019-02-02T04:55:38.206Z,20.30
2019-02-02T04:56:38.196Z,20.30
2019-02-02T04:57:38.181Z,21.30
2019-02-02T04:58:38.181Z,21.00
2019-02-02T04:59:38.167Z,20.50
2019-02-02T05:00:38.157Z,20.90
2019-02-02T05:01:38.145Z,20.80
2019-02-02T05:02:38.129Z,20.30
2019-02-02T05:03:38.161Z,20.00
2019-02-02T05:04:38.111Z,20.60
2019-02-02T05:05:38.098Z,20.70
2019-02-02T05:06:38.090Z,20.10
2019-02-02T05:07:38.081Z,20.20
2019-02-02T05:08:38.080Z,19.10
2019-02-02T05:09:38.049Z,20.70
2019-02-02T05:10:38.045Z,21.60
2019-02-02T05:11:38.044Z,20.90
2019-02-02T05:12:38.108Z,19.70
2019-02-02T05:13:38.010Z,19.00
2019-02-02T05:14:37.998Z,19.20
2019-02-02T05:15:37.988Z,19.50
2019-02-02T05:16:37.976Z,19.40
2019-02-02T05:17:37.968Z,18.90
2019-02-02T05:18:37.958Z,20.00
2019-02-02T05:19:37.953Z,19.70
2019-02-02T05:20:37.946Z,18.70
2019-02-02T05:21:37.918Z,19.20
2019-02-02T05:22:37.951Z,20.20
2019-02-02T05:23:37.900Z,19.90
2019-02-02T05:24:37.894Z,20.20
2019-02-02T05:25:37.882Z,20.40
2019-02-02T05:26:37.873Z,20.60
2019-02-02T05:27:37.861Z,19.50
2019-02-02T05:28:37.847Z,20.10
2019-02-02T05:29:41.446Z,20.70
2019-02-02T05:30:37.835Z,20.00
2019-02-02T05:31:37.840Z,19.90
2019-02-02T05:32:37.805Z,21.10
2019-02-02T05:33:37.793Z,20.80
2019-02-02T05:34:37.786Z,21.10
2019-02-02T05:35:37.769Z,19.50
2019-02-02T05:36:37.754Z,20.00
2019-02-02T05:37:37.773Z,20.00
2019-02-02T05:38:37.734Z,20.90
2019-02-02T05:39:37.745Z,19.30
2019-02-02T05:40:37.721Z,19.80
2019-02-02T05:41:37.706Z,19.90
2019-02-02T05:42:37.700Z,19.60
2019-02-02T05:43:37.685Z,20.20
2019-02-02T05:44:37.675Z,19.10
2019-02-02T05:45:37.663Z,19.60
2019-02-02T05:46:37.651Z,19.70
2019-02-02T05:47:37.633Z,20.30
2019-02-02T05:48:37.630Z,19.00
2019-02-02T05:49:37.613Z,19.40
2019-02-02T05:50:37.610Z,18.90
2019-02-02T05:51:37.605Z,17.80
2019-02-02T05:52:37.585Z,18.70
2019-02-02T05:53:37.577Z,18.60
2019-02-02T05:54:37.565Z,19.50
2019-02-02T05:55:37.544Z,18.10
2019-02-02T05:56:37.547Z,18.40
2019-02-02T05:57:37.534Z,17.90
2019-02-02T05:58:37.515Z,17.90
2019-02-02T05:59:37.507Z,17.80
2019-02-02T06:00:37.497Z,18.80
2019-02-02T06:01:37.487Z,19.00
2019-02-02T06:02:37.477Z,18.00
2019-02-02T06:03:37.464Z,19.70
2019-02-02T06:04:37.453Z,17.50
2019-02-02T06:05:37.444Z,17.50
2019-02-02T06:06:37.431Z,18.70
2019-02-02T06:07:37.418Z,18.10
2019-02-02T06:08:37.410Z,17.40
2019-02-02T06:09:37.389Z,17.70
2019-02-02T06:10:37.393Z,18.20
2019-02-02T06:11:37.382Z,17.50
2019-02-02T06:12:37.365Z,17.40
2019-02-02T06:13:37.357Z,16.80
2019-02-02T06:14:37.347Z,17.60
2019-02-02T06:15:37.333Z,16.60
2019-02-02T06:16:37.324Z,17.20
2019-02-02T06:17:37.311Z,18.50
2019-02-02T06:18:37.303Z,17.80
2019-02-02T06:19:37.294Z,18.80
2019-02-02T06:20:37.268Z,19.30
2019-02-02T06:21:37.265Z,18.30
2019-02-02T06:22:37.281Z,17.10
2019-02-02T06:23:37.247Z,17.70
2019-02-02T06:24:37.238Z,18.00
2019-02-02T06:25:37.366Z,18.30
2019-02-02T06:26:37.241Z,18.10
2019-02-02T06:27:37.229Z,18.30
2019-02-02T06:28:37.188Z,17.50
2019-02-02T06:29:37.181Z,18.80
2019-02-02T06:30:37.165Z,18.80
2019-02-02T06:31:37.184Z,18.20
2019-02-02T06:32:37.150Z,18.00
2019-02-02T06:33:37.139Z,17.50
2019-02-02T06:34:37.186Z,17.90
2019-02-02T06:35:37.124Z,18.70
2019-02-02T06:36:37.128Z,19.00
2019-02-02T06:37:37.227Z,17.80
2019-02-02T06:38:37.110Z,18.30
2019-02-02T06:39:37.080Z,18.40
2019-02-02T06:40:37.102Z,18.50
2019-02-02T06:41:37.071Z,18.80
2019-02-02T06:42:37.058Z,17.80
2019-02-02T06:43:37.077Z,17.30
2019-02-02T06:44:37.056Z,18.10
2019-02-02T06:45:37.015Z,18.00
2019-02-02T06:46:43.802Z,18.40
2019-02-02T06:47:36.982Z,17.00
2019-02-02T06:48:36.972Z,17.40
2019-02-02T06:49:36.996Z,17.40
2019-02-02T06:50:36.950Z,17.70
2019-02-02T06:51:36.931Z,18.60
2019-02-02T06:52:36.923Z,17.10
2019-02-02T06:53:36.908Z,17.40
2019-02-02T06:54:36.904Z,17.00
2019-02-02T06:55:36.897Z,17.30
2019-02-02T06:56:36.884Z,17.00
2019-02-02T06:57:36.866Z,17.50
2019-02-02T06:58:36.860Z,17.00
2019-02-02T06:59:36.846Z,17.50
2019-02-02T07:00:36.856Z,16.50
2019-02-02T07:01:36.827Z,17.30
2019-02-02T07:02:36.811Z,16.80
2019-02-02T07:03:36.798Z,17.00
2019-02-02T07:04:36.789Z,17.10
2019-02-02T07:05:36.788Z,16.10
2019-02-02T07:06:36.767Z,16.50
2019-02-02T07:07:36.870Z,16.70
2019-02-02T07:08:36.754Z,17.00
2019-02-02T07:09:36.762Z,16.00
2019-02-02T07:10:36.735Z,17.00
2019-02-02T07:11:36.719Z,16.50
2019-02-02T07:12:36.709Z,16.80
2019-02-02T07:13:36.692Z,18.20
2019-02-02T07:14:36.690Z,16.00
2019-02-02T07:15:36.674Z,16.80
2019-02-02T07:16:36.660Z,16.90
2019-02-02T07:17:36.653Z,17.00
2019-02-02T07:18:36.650Z,16.10
2019-02-02T07:19:36.636Z,16.80
2019-02-02T07:20:36.630Z,17.00
2019-02-02T07:21:36.617Z,17.90
2019-02-02T07:22:36.605Z,16.30
2019-02-02T07:23:36.582Z,17.50
2019-02-02T07:24:36.568Z,17.00
2019-02-02T07:25:36.558Z,15.90
2019-02-02T07:26:36.557Z,17.10
2019-02-02T07:27:36.548Z,17.20
2019-02-02T07:28:36.545Z,16.90
2019-02-02T07:29:36.522Z,16.50
2019-02-02T07:30:36.509Z,17.70
2019-02-02T07:31:36.498Z,17.60
2019-02-02T07:32:36.495Z,18.80
2019-02-02T07:33:36.473Z,17.80
2019-02-02T07:34:36.467Z,17.30
2019-02-02T07:35:36.461Z,18.40
2019-02-02T07:36:36.441Z,17.50
2019-02-02T07:37:36.426Z,17.90
2019-02-02T07:38:36.429Z,17.30
2019-02-02T07:39:36.416Z,17.50
2019-02-02T07:40:36.410Z,17.20
2019-02-02T07:41:36.392Z,18.00
2019-02-02T07:42:36.382Z,16.90
2019-02-02T07:43:36.367Z,16.70
2019-02-02T07:44:36.357Z,18.10
2019-02-02T07:45:36.352Z,16.40
2019-02-02T07:46:36.336Z,16.10
2019-02-02T07:47:36.321Z,18.10
2019-02-02T07:48:36.310Z,18.30
2019-02-02T07:49:36.297Z,18.60
2019-02-02T07:50:36.294Z,18.20
2019-02-02T07:51:36.287Z,18.20
2019-02-02T07:52:36.274Z,17.50
2019-02-02T07:53:36.261Z,18.20
2019-02-02T07:54:36.250Z,19.00
2019-02-02T07:55:36.228Z,18.30
2019-02-02T07:56:36.229Z,18.00
2019-02-02T07:57:36.212Z,20.30
2019-02-02T07:58:36.210Z,22.40
2019-02-02T07:59:36.202Z,20.80
2019-02-02T08:00:40.868Z,20.90
2019-02-02T08:01:36.175Z,19.30
2019-02-02T08:02:36.161Z,18.00
2019-02-02T08:03:36.143Z,17.80
2019-02-02T08:04:36.146Z,18.60
2019-02-02T08:05:36.153Z,17.60
2019-02-02T08:06:36.116Z,17.60
2019-02-02T08:07:36.120Z,17.70
2019-02-02T08:08:36.098Z,18.20
2019-02-02T08:09:36.125Z,17.70
2019-02-02T08:10:36.074Z,18.30
2019-02-02T08:11:36.072Z,18.10
2019-02-02T08:12:36.058Z,18.50
2019-02-02T08:13:36.051Z,18.80
2019-02-02T08:14:36.046Z,17.40
2019-02-02T08:15:36.121Z,17.20
2019-02-02T08:16:36.048Z,17.10
2019-02-02T08:17:36.044Z,18.50
2019-02-02T08:18:36.003Z,17.50
2019-02-02T08:19:36.006Z,17.60
2019-02-02T08:20:37.018Z,18.90
2019-02-02T08:21:36.134Z,17.20
2019-02-02T08:22:35.965Z,17.70
2019-02-02T08:23:36.119Z,17.90
2019-02-02T08:24:38.598Z,16.40
2019-02-02T08:25:36.098Z,18.30
2019-02-02T08:26:36.062Z,17.60
2019-02-02T08:27:35.930Z,18.60
2019-02-02T08:28:35.899Z,18.70
2019-02-02T08:29:35.886Z,18.00
2019-02-02T08:30:36.334Z,18.40
2019-02-02T08:31:35.855Z,18.60
2019-02-02T08:32:35.860Z,17.80
2019-02-02T08:33:35.923Z,18.20
2019-02-02T08:34:35.823Z,17.20
2019-02-02T08:35:35.967Z,18.80
2019-02-02T08:36:35.807Z,17.90
2019-02-02T08:37:35.789Z,18.80
2019-02-02T08:38:35.778Z,19.20
2019-02-02T08:39:35.773Z,19.20
2019-02-02T08:40:36.042Z,18.90
2019-02-02T08:41:36.069Z,18.70
2019-02-02T08:42:35.956Z,22.50
2019-02-02T08:43:35.906Z,28.70
2019-02-02T08:44:35.719Z,24.80
2019-02-02T08:45:36.175Z,24.40
2019-02-02T08:46:35.694Z,22.20
2019-02-02T08:47:35.694Z,21.50
2019-02-02T08:48:35.674Z,21.50
2019-02-02T08:49:35.668Z,22.40
2019-02-02T08:50:35.669Z,21.50
2019-02-02T08:51:35.668Z,20.70
2019-02-02T08:52:35.639Z,19.60
2019-02-02T08:53:35.797Z,24.70
2019-02-02T08:54:35.606Z,23.30
2019-02-02T08:55:35.597Z,22.40
2019-02-02T08:56:35.584Z,20.50
2019-02-02T08:57:35.586Z,19.90
2019-02-02T08:58:35.569Z,19.40
2019-02-02T08:59:35.561Z,17.50
2019-02-02T09:00:35.552Z,18.00
2019-02-02T09:01:35.568Z,19.50
2019-02-02T09:02:35.547Z,19.50
2019-02-02T09:03:35.557Z,20.90
2019-02-02T09:04:35.509Z,21.10
2019-02-02T09:05:35.505Z,19.70
2019-02-02T09:06:39.077Z,18.80
2019-02-02T09:07:38.293Z,18.60
2019-02-02T09:08:35.514Z,19.80
2019-02-02T09:09:35.486Z,20.30
2019-02-02T09:10:35.447Z,19.40
2019-02-02T09:11:35.446Z,19.60
2019-02-02T09:12:35.429Z,19.30
2019-02-02T09:13:36.883Z,19.00
2019-02-02T09:14:35.397Z,18.70
2019-02-02T09:15:35.392Z,19.50
2019-02-02T09:16:35.398Z,18.60
2019-02-02T09:17:35.454Z,17.40
2019-02-02T09:18:35.637Z,18.90
2019-02-02T09:19:35.367Z,18.50
2019-02-02T09:20:35.345Z,18.60
2019-02-02T09:21:35.381Z,19.30
2019-02-02T09:22:35.319Z,20.40
2019-02-02T09:23:35.319Z,20.00
2019-02-02T09:24:35.301Z,19.10
2019-02-02T09:25:35.289Z,20.10
2019-02-02T09:26:35.276Z,19.30
2019-02-02T09:27:35.264Z,19.80
2019-02-02T09:28:35.255Z,19.20
2019-02-02T09:29:35.248Z,18.30
2019-02-02T09:30:35.242Z,18.80
2019-02-02T09:31:35.545Z,18.60
2019-02-02T09:32:35.223Z,18.90
2019-02-02T09:33:35.220Z,18.50
2019-02-02T09:34:35.206Z,19.00
2019-02-02T09:35:35.188Z,18.00
2019-02-02T09:36:35.181Z,18.60
2019-02-02T09:37:35.194Z,18.20
2019-02-02T09:38:35.172Z,19.00
2019-02-02T09:39:35.148Z,20.00
2019-02-02T09:40:41.265Z,20.30
2019-02-02T09:41:40.637Z,22.90
2019-02-02T09:42:37.010Z,21.60
2019-02-02T09:43:45.420Z,20.60
2019-02-02T09:44:42.276Z,20.40
2019-02-02T09:48:35.056Z,19.10
2019-02-02T09:49:35.331Z,18.80
2019-02-02T09:50:35.892Z,19.70
2019-02-02T09:51:35.083Z,18.30
2019-02-02T09:52:35.741Z,19.10
2019-02-02T09:53:35.028Z,20.20
2019-02-02T09:54:35.014Z,19.70
2019-02-02T09:55:35.011Z,19.20
2019-02-02T09:56:34.990Z,19.40
2019-02-02T09:58:03.507Z,19.90
2019-02-02T09:58:34.962Z,21.60
2019-02-02T09:59:34.960Z,21.20
2019-02-02T10:00:35.006Z,20.40
2019-02-02T10:01:35.001Z,19.20
2019-02-02T10:02:34.938Z,18.50
2019-02-02T10:03:34.949Z,18.40
2019-02-02T10:04:34.908Z,19.10
2019-02-02T10:05:34.918Z,18.40
2019-02-02T10:06:34.898Z,19.50
2019-02-02T10:07:34.892Z,20.30
2019-02-02T10:08:34.881Z,19.40
2019-02-02T10:09:34.889Z,19.60
2019-02-02T10:10:34.863Z,19.40
2019-02-02T10:11:34.838Z,19.20
2019-02-02T10:12:34.833Z,19.60
2019-02-02T10:13:34.820Z,18.30
2019-02-02T10:14:34.813Z,21.50
2019-02-02T10:15:34.807Z,20.60
2019-02-02T10:16:34.798Z,20.20
2019-02-02T10:17:34.789Z,20.20
2019-02-02T10:18:34.770Z,21.00
2019-02-02T10:19:34.760Z,20.40
2019-02-02T10:20:34.770Z,20.60
2019-02-02T10:21:34.781Z,21.10
2019-02-02T10:24:06.853Z,21.40
2019-02-02T10:25:06.831Z,20.30
2019-02-02T10:27:25.300Z,20.20
2019-02-02T10:28:01.201Z,20.10
2019-02-02T10:29:54.669Z,21.10
2019-02-02T10:30:54.564Z,21.40
2019-02-02T10:32:47.972Z,22.10
2019-02-02T10:33:47.986Z,22.10
2019-02-02T10:35:41.323Z,22.20
2019-02-02T10:36:41.309Z,23.50
2019-02-02T10:38:35.687Z,23.90
2019-02-02T10:39:35.652Z,23.20
2019-02-02T10:40:35.673Z,23.70
2019-02-02T10:41:35.671Z,23.10
2019-02-02T10:42:35.609Z,23.10
2019-02-02T10:43:35.622Z,22.20
2019-02-02T10:44:35.607Z,22.20
2019-02-02T10:45:35.601Z,22.40
2019-02-02T10:46:35.582Z,21.90
2019-02-02T10:47:35.574Z,20.60
2019-02-02T10:48:35.559Z,20.90
2019-02-02T10:49:35.548Z,19.90
2019-02-02T10:50:35.546Z,20.10
2019-02-02T10:51:35.531Z,20.50
2019-02-02T10:52:35.534Z,21.60
2019-02-02T10:53:35.520Z,21.10
2019-02-02T10:54:35.499Z,22.00
2019-02-02T10:55:35.508Z,20.40
2019-02-02T10:56:35.482Z,21.20
2019-02-02T10:57:35.478Z,21.30
2019-02-02T10:58:35.461Z,20.90
2019-02-02T10:59:35.478Z,20.70
2019-02-02T11:00:35.441Z,21.40
2019-02-02T11:01:35.435Z,22.10
2019-02-02T11:02:35.435Z,22.70
2019-02-02T11:03:35.412Z,21.50
2019-02-02T11:04:35.617Z,22.40
2019-02-02T11:05:35.446Z,22.40
2019-02-02T11:06:35.436Z,22.50
2019-02-02T11:07:35.412Z,21.90
2019-02-02T11:08:35.647Z,22.70
2019-02-02T11:09:35.431Z,22.40
2019-02-02T11:10:35.471Z,23.40
2019-02-02T11:11:35.449Z,24.40
2019-02-02T11:12:35.323Z,21.90
2019-02-02T11:13:35.347Z,24.40
2019-02-02T11:14:35.343Z,22.70
2019-02-02T11:15:35.293Z,24.70
2019-02-02T11:16:35.422Z,22.60
2019-02-02T11:17:35.389Z,22.60
2019-02-02T11:18:35.380Z,23.80
2019-02-02T11:19:35.502Z,23.10
2019-02-02T11:20:35.286Z,22.40
2019-02-02T11:21:35.242Z,24.60
2019-02-02T11:22:35.604Z,23.90
2019-02-02T11:23:35.347Z,22.10
2019-02-02T11:24:35.238Z,22.90
2019-02-02T11:25:35.199Z,22.90
2019-02-02T11:26:35.272Z,23.20
2019-02-02T11:27:35.329Z,23.70
2019-02-02T11:28:35.243Z,23.50
2019-02-02T11:29:35.155Z,22.60
2019-02-02T11:30:35.162Z,22.50
2019-02-02T11:31:35.131Z,22.10
2019-02-02T11:32:35.118Z,22.70
2019-02-02T11:33:35.118Z,24.50
2019-02-02T11:34:35.106Z,24.00
2019-02-02T11:35:35.097Z,23.50
2019-02-02T11:36:35.089Z,22.20
2019-02-02T11:37:35.079Z,23.70
2019-02-02T11:38:35.062Z,24.40
2019-02-02T11:39:35.049Z,22.90
2019-02-02T11:40:35.038Z,24.50
2019-02-02T11:41:35.028Z,24.70
2019-02-02T11:42:35.024Z,24.00
2019-02-02T11:43:35.018Z,24.00
2019-02-02T11:44:35.003Z,23.90
2019-02-02T11:45:35.010Z,24.00
2019-02-02T11:46:34.983Z,24.10
2019-02-02T11:47:34.972Z,27.60
2019-02-02T11:48:34.983Z,25.40
2019-02-02T11:49:34.955Z,25.00
2019-02-02T11:50:34.999Z,24.90
2019-02-02T11:51:35.025Z,25.10
2019-02-02T11:52:35.031Z,24.70
2019-02-02T11:53:37.319Z,25.90
2019-02-02T11:54:35.037Z,26.10
2019-02-02T11:55:34.938Z,26.30
2019-02-02T11:56:35.198Z,25.30
2019-02-02T11:57:37.098Z,25.00
2019-02-02T11:58:35.046Z,26.20
2019-02-02T11:59:35.046Z,26.70
2019-02-02T12:00:35.242Z,25.40
2019-02-02T12:01:34.918Z,27.90
2019-02-02T12:02:35.146Z,26.40
2019-02-02T12:03:34.985Z,26.40
2019-02-02T12:04:35.079Z,26.60
2019-02-02T12:05:35.238Z,27.90
2019-02-02T12:06:35.036Z,26.60
2019-02-02T12:07:34.993Z,25.80
2019-02-02T12:08:34.778Z,27.60
2019-02-02T12:09:34.754Z,25.80
2019-02-02T12:10:34.748Z,27.00
2019-02-02T12:11:34.749Z,26.80
2019-02-02T12:12:34.728Z,27.20
2019-02-02T12:13:35.796Z,27.00
2019-02-02T12:14:34.703Z,26.00
2019-02-02T12:15:34.696Z,27.00
2019-02-02T12:16:34.678Z,27.50
2019-02-02T12:17:34.681Z,26.00
2019-02-02T12:18:34.665Z,26.50
2019-02-02T12:19:34.657Z,27.30
2019-02-02T12:20:34.649Z,25.30
2019-02-02T12:21:34.631Z,25.50
2019-02-02T12:22:34.626Z,26.70
2019-02-02T12:23:35.242Z,27.40
2019-02-02T12:24:34.646Z,27.70
2019-02-02T12:25:34.612Z,25.60
2019-02-02T12:26:34.757Z,27.00
2019-02-02T12:27:34.635Z,26.70
2019-02-02T12:28:35.039Z,26.90
2019-02-02T12:29:34.757Z,27.30
2019-02-02T12:30:34.633Z,27.60
2019-02-02T12:31:36.522Z,27.40
2019-02-02T12:32:34.642Z,26.40
2019-02-02T12:33:34.564Z,27.40
2019-02-02T12:34:35.357Z,27.80
2019-02-02T12:35:37.023Z,25.40
2019-02-02T12:36:35.305Z,25.00
2019-02-02T12:37:34.488Z,25.80
2019-02-02T12:38:34.532Z,24.30
2019-02-02T12:39:34.621Z,24.30
2019-02-02T12:40:34.488Z,24.70
2019-02-02T12:41:34.492Z,24.40
2019-02-02T12:42:34.430Z,23.50
2019-02-02T12:43:34.693Z,24.70
2019-02-02T12:44:34.574Z,23.80
2019-02-02T12:45:34.474Z,22.70
2019-02-02T12:46:34.393Z,23.20
2019-02-02T12:47:34.528Z,22.60
2019-02-02T12:48:34.441Z,22.60
2019-02-02T12:49:35.307Z,22.80
2019-02-02T12:50:34.369Z,22.30
2019-02-02T12:51:34.503Z,23.50
2019-02-02T12:52:34.331Z,23.90
2019-02-02T12:53:34.703Z,24.10
2019-02-02T12:54:34.844Z,24.10
2019-02-02T12:55:34.434Z,23.00
2019-02-02T12:56:34.480Z,23.80
2019-02-02T12:57:34.296Z,22.50
2019-02-02T12:58:34.337Z,22.70
2019-02-02T12:59:34.294Z,23.90
2019-02-02T13:00:34.286Z,23.30
2019-02-02T13:01:34.407Z,24.00